KEZM

Heart of Georgia Regional Airport

Eastman, Georgia, USA
METAR KEZM 140755Z AUTO 08004KT 10SM -RA OVC004 13/13 A3012 RMK AO2 T01330131
Observed Flight Rules
Dec-14 @ 07:55 UTC (33 minutes ago) Instrument Flight Rules
Wind Visibility Clouds Conditions
80° at 4 knots 10 miles
  • Overcast at 400' AGL
  • Light Rain
Temperatures Readings
Current 13°C / 55°F
Dewpoint 13°C / 55°F
Humidity 100%
Altimeter 30.12" Hg
Pressure 1020 hPa
Elevation 93
METAR KEZM 140755Z AUTO 08004KT 10SM -RA OVC004 13/13 A3012 RMK AO2 T01330131
Observed Flight Rules
Dec-14 @ 07:55 UTC
(33 minutes ago)
LIFR
Wind Visibility
80° at 4 knots 10 miles
Clouds
  • Overcast at 400' AGL
Conditions
  • Light Rain
Temperature Dewpoint
13°C / 55°F 13°C / 55°F
Humidity Altimeter Pressure
100% 30.12" Hg 1020 hPa